TAF Text Data
IDs:
Format:
Raw Decoded Include METAR

Data at: 0245 UTC 29 Nov 2020

KPWM 282328Z 2823/2924 27003KT P6SM FEW070
  TEMPO 2900/2903 2SM BR SCT002
  FM291800 22005KT P6SM SKC